Time;durP1;ratioP1;P1;durP2;ratioP2;P2;SDS_P1;SDS_P2;PMS_P1;PMS_P2;Temp;Humidity;BMP_temperature;BMP_pressure;BME280_temperature;BME280_humidity;BME280_pressure;Samples;Min_cycle;Max_cycle;Signal;HPM_P1;HPM_P2
2021/05/26 00:01:26;;;;;;;6.72;6.20;;;;;;;9.09;80.75;100504.00;5049035;28;20071;-82
2021/05/26 00:03:53;;;;;;;5.85;5.25;;;;;;;9.08;81.13;100497.03;5049196;28;20075;-82
2021/05/26 00:06:19;;;;;;;7.65;6.97;;;;;;;9.08;80.99;100490.06;5066332;28;20059;-83
2021/05/26 00:08:45;;;;;;;5.07;4.78;;;;;;;9.07;81.11;100497.91;5055282;28;20056;-82
2021/05/26 00:11:26;;;;;;;5.82;5.03;;;;;;;9.10;80.83;100490.06;5089424;28;20056;-83
2021/05/26 00:14:04;;;;;;;4.90;4.50;;;;;;;9.12;80.51;100487.44;5077115;28;20044;-83
2021/05/26 00:16:42;;;;;;;4.95;4.45;;;;;;;9.09;80.30;100486.56;5064350;28;20047;-83
2021/05/26 00:19:10;;;;;;;6.57;4.95;;;;;;;9.10;80.46;100487.47;5087843;28;20049;-83
2021/05/26 00:21:37;;;;;;;4.95;4.65;;;;;;;9.07;80.10;100488.34;5070816;28;20040;-83
2021/05/26 00:24:07;;;;;;;5.68;5.18;;;;;;;9.06;79.79;100483.13;5071602;28;20044;-82
2021/05/26 00:26:38;;;;;;;5.00;4.60;;;;;;;9.04;79.70;100483.13;5067585;28;20048;-83
2021/05/26 00:29:09;;;;;;;4.90;4.53;;;;;;;9.08;79.49;100481.38;5072074;28;20534;-82
2021/05/26 00:31:38;;;;;;;6.18;4.88;;;;;;;9.09;79.32;100488.34;5069133;28;20041;-83
2021/05/26 00:34:08;;;;;;;4.82;4.43;;;;;;;9.08;79.04;100479.63;5068017;28;20058;-83
2021/05/26 00:36:36;;;;;;;5.60;4.53;;;;;;;9.11;78.79;100470.91;5070743;28;20450;-82
2021/05/26 00:39:05;;;;;;;6.28;4.90;;;;;;;9.12;79.06;100474.41;5055625;28;20117;-82
2021/05/26 00:41:34;;;;;;;7.43;5.45;;;;;;;9.10;78.63;100483.09;5081659;28;20110;-83
2021/05/26 00:44:03;;;;;;;6.72;4.68;;;;;;;9.09;78.35;100473.53;5069608;28;20035;-82
2021/05/26 00:46:29;;;;;;;4.72;4.30;;;;;;;9.10;78.19;100472.66;5069012;28;20049;-82
2021/05/26 00:49:08;;;;;;;4.45;4.05;;;;;;;9.08;78.01;100484.84;5085997;28;20048;-83
2021/05/26 00:51:46;;;;;;;5.07;4.20;;;;;;;9.08;77.96;100474.38;5085153;28;20044;-82
2021/05/26 00:54:12;;;;;;;4.50;4.20;;;;;;;9.07;77.62;100482.25;5067433;28;20040;-82
2021/05/26 00:56:41;;;;;;;5.75;4.93;;;;;;;9.05;78.00;100470.97;5051626;28;20055;-83
2021/05/26 00:59:08;;;;;;;4.32;4.03;;;;;;;9.07;78.07;100482.25;5054933;28;20048;-82
2021/05/26 01:01:36;;;;;;;4.80;4.38;;;;;;;9.04;78.05;100474.44;5062456;28;20048;-83
2021/05/26 01:04:03;;;;;;;4.95;4.07;;;;;;;9.01;78.11;100472.72;5051730;28;20143;-83
2021/05/26 01:06:29;;;;;;;4.30;3.90;;;;;;;9.03;77.88;100476.16;5068182;28;20047;-83
2021/05/26 01:08:56;;;;;;;4.57;3.83;;;;;;;9.02;78.03;100471.84;5054323;28;20136;-82
2021/05/26 01:11:25;;;;;;;4.40;4.00;;;;;;;9.02;78.07;100473.56;5088134;28;20101;-82
2021/05/26 01:13:51;;;;;;;5.82;3.83;;;;;;;9.03;78.08;100464.84;5070223;28;20049;-82
2021/05/26 01:16:17;;;;;;;7.03;4.05;;;;;;;9.04;77.87;100466.59;5073229;28;20036;-83
2021/05/26 01:18:45;;;;;;;5.25;4.07;;;;;;;9.03;78.09;100470.09;5060763;28;20135;-83
2021/05/26 01:21:16;;;;;;;4.28;3.75;;;;;;;9.00;78.26;100470.97;5068102;28;20444;-82
2021/05/26 01:23:42;;;;;;;3.78;3.40;;;;;;;9.02;78.00;100469.22;5059126;28;20048;-82
2021/05/26 01:26:11;;;;;;;4.45;4.07;;;;;;;9.03;77.94;100464.84;5056883;28;20055;-82
2021/05/26 01:28:38;;;;;;;5.20;3.97;;;;;;;9.04;78.03;100471.81;5067717;28;20116;-82
2021/05/26 01:31:07;;;;;;;3.60;3.30;;;;;;;9.01;78.52;100462.25;5063090;28;20523;-82
2021/05/26 01:33:39;;;;;;;4.20;3.78;;;;;;;9.00;78.49;100467.50;5054812;28;21052;-81
2021/05/26 01:36:06;;;;;;;4.28;3.95;;;;;;;8.96;78.51;100456.19;5077457;28;20044;-82
2021/05/26 01:38:36;;;;;;;6.00;4.13;;;;;;;8.98;78.57;100464.88;5085643;28;20060;-83
2021/05/26 01:41:05;;;;;;;3.95;3.60;;;;;;;9.00;78.71;100463.13;5089582;28;20044;-82
2021/05/26 01:43:33;;;;;;;4.38;4.07;;;;;;;9.02;78.31;100457.91;5088370;28;20032;-82
2021/05/26 01:46:03;;;;;;;4.03;3.38;;;;;;;9.03;78.29;100463.09;5080213;28;20132;-82
2021/05/26 01:48:30;;;;;;;4.43;4.03;;;;;;;9.02;78.64;100464.00;5056575;28;20609;-81
2021/05/26 01:50:56;;;;;;;4.20;3.90;;;;;;;9.00;78.77;100460.53;5070547;28;20048;-82
2021/05/26 01:53:27;;;;;;;4.82;3.95;;;;;;;9.00;79.06;100459.66;5051073;28;20534;-81
2021/05/26 01:55:58;;;;;;;5.00;4.40;;;;;;;8.97;78.82;100457.94;5052520;28;20097;-82
2021/05/26 01:58:26;;;;;;;4.40;4.00;;;;;;;8.98;78.72;100457.03;5052096;28;20045;-81
2021/05/26 02:00:54;;;;;;;4.25;3.85;;;;;;;8.94;79.11;100451.00;5068412;28;20159;-83
2021/05/26 02:03:25;;;;;;;4.82;4.50;;;;;;;8.94;79.02;100452.72;5089165;28;20040;-82
2021/05/26 02:05:52;;;;;;;4.10;3.63;;;;;;;8.94;79.11;100452.72;5074213;28;20403;-82
2021/05/26 02:08:18;;;;;;;3.50;3.20;;;;;;;8.92;79.20;100451.88;5067469;28;20086;-82
2021/05/26 02:13:28;;;;;;;4.95;4.55;;;;;;;8.85;79.45;100450.16;5083660;28;20375;-83
2021/05/26 02:15:57;;;;;;;5.40;4.60;;;;;;;8.84;79.52;100449.31;5066460;28;20097;-82
2021/05/26 02:18:23;;;;;;;5.97;5.47;;;;;;;8.84;79.67;100456.25;5068648;28;20078;-83
2021/05/26 02:20:52;;;;;;;4.90;4.50;;;;;;;8.84;79.33;100449.31;5053209;28;20093;-82
2021/05/26 02:23:19;;;;;;;5.18;4.35;;;;;;;8.83;79.58;100452.78;5065079;28;20072;-83
2021/05/26 02:25:46;;;;;;;4.90;4.50;;;;;;;8.84;79.49;100443.19;5071298;28;20144;-82
2021/05/26 02:28:12;;;;;;;5.43;5.03;;;;;;;8.82;79.70;100444.97;5073924;28;20055;-82
2021/05/26 02:30:43;;;;;;;5.55;4.85;;;;;;;8.82;79.53;100451.03;5046399;28;20052;-83
2021/05/26 02:33:09;;;;;;;5.18;4.82;;;;;;;8.84;79.53;100445.81;5053885;28;20074;-82
2021/05/26 02:35:40;;;;;;;5.70;5.25;;;;;;;8.82;79.54;100442.34;5055641;28;20053;-83
2021/05/26 02:38:06;;;;;;;5.50;5.03;;;;;;;8.81;79.48;100438.84;5065222;28;20068;-84
2021/05/26 02:40:34;;;;;;;6.90;4.97;;;;;;;8.84;79.59;100448.41;5085658;28;20056;-82
2021/05/26 02:43:04;;;;;;;7.63;4.55;;;;;;;8.86;79.05;100438.84;5068499;28;20087;-82
2021/05/26 02:45:38;;;;;;;8.43;6.15;;;;;;;8.87;79.24;100440.59;5067416;28;20080;-83
2021/05/26 02:48:06;;;;;;;6.30;5.85;;;;;;;8.86;79.37;100436.25;5049790;28;20080;-82
2021/05/26 02:50:36;;;;;;;8.23;6.35;;;;;;;8.89;79.38;100438.81;5082127;28;20044;-83
2021/05/26 02:53:03;;;;;;;7.28;6.53;;;;;;;8.91;79.78;100444.91;5066989;28;20040;-83
2021/05/26 02:55:30;;;;;;;9.48;6.95;;;;;;;8.92;79.73;100451.88;5067397;28;20063;-83
2021/05/26 02:57:58;;;;;;;9.63;7.25;;;;;;;8.93;79.82;100437.94;5067009;28;20052;-82
2021/05/26 03:00:26;;;;;;;8.85;7.55;;;;;;;8.89;80.82;100444.94;5066776;28;20036;-83
2021/05/26 03:02:52;;;;;;;11.30;8.45;;;;;;;8.81;81.13;100440.63;5088736;28;20498;-83
2021/05/26 03:05:20;;;;;;;11.63;9.20;;;;;;;8.74;82.03;100438.03;5081977;28;20057;-82
2021/05/26 03:07:48;;;;;;;11.30;8.90;;;;;;;8.62;83.43;100443.31;5066203;28;20541;-82
2021/05/26 03:10:20;;;;;;;10.00;8.98;;;;;;;8.54;84.54;100460.72;5061998;28;20041;-82
2021/05/26 03:12:51;;;;;;;8.48;7.47;;;;;;;8.38;85.02;100450.34;5066477;28;20059;-84
2021/05/26 03:15:19;;;;;;;9.07;7.65;;;;;;;8.24;86.19;100452.97;5062865;28;20053;-83
2021/05/26 03:17:49;;;;;;;6.15;5.57;;;;;;;8.06;86.55;100442.59;5068466;28;20048;-83
2021/05/26 03:20:19;;;;;;;8.40;5.68;;;;;;;7.91;87.46;100451.28;5067774;28;20156;-83
2021/05/26 03:22:46;;;;;;;5.55;4.63;;;;;;;7.83;87.16;100446.09;5067144;28;20040;-83
2021/05/26 03:25:14;;;;;;;4.88;3.40;;;;;;;7.75;87.62;100446.09;5069933;28;20046;-83
2021/05/26 03:27:41;;;;;;;6.93;2.78;;;;;;;7.66;87.94;100437.44;5081597;28;20071;-83
2021/05/26 03:30:16;;;;;;;3.20;2.90;;;;;;;7.60;88.30;100430.47;5069872;28;20403;-82
2021/05/26 03:32:46;;;;;;;3.10;2.63;;;;;;;7.54;87.97;100441.75;5079308;28;20498;-82
2021/05/26 03:35:15;;;;;;;3.55;3.28;;;;;;;7.51;88.03;100433.06;5066946;28;20171;-82
2021/05/26 03:37:47;;;;;;;4.72;4.35;;;;;;;7.52;88.36;100434.81;5066922;28;20056;-82
2021/05/26 03:40:16;;;;;;;5.30;4.80;;;;;;;7.56;88.49;100433.94;5071386;28;20036;-83
2021/05/26 03:42:43;;;;;;;9.50;5.40;;;;;;;7.58;88.67;100425.25;5050117;28;20052;-83
2021/05/26 03:45:16;;;;;;;8.63;6.43;;;;;;;7.59;88.57;100431.34;5054487;28;20040;-83
2021/05/26 03:47:44;;;;;;;7.80;7.00;;;;;;;7.61;89.14;100435.69;5049094;28;21107;-83
2021/05/26 03:50:14;;;;;;;7.72;7.03;;;;;;;7.66;88.59;100434.81;5070835;28;20052;-84
2021/05/26 03:52:43;;;;;;;8.15;6.95;;;;;;;7.68;89.30;100428.75;5069843;28;20048;-83
2021/05/26 03:55:12;;;;;;;8.70;7.82;;;;;;;7.69;89.27;100425.28;5070647;28;20135;-83
2021/05/26 03:57:42;;;;;;;9.27;6.97;;;;;;;7.71;88.99;100435.69;5067195;28;20060;-83
2021/05/26 04:00:14;;;;;;;16.25;8.13;;;;;;;7.72;88.92;100438.28;5086902;28;20059;-84
2021/05/26 04:02:40;;;;;;;14.13;8.40;;;;;;;7.72;88.80;100430.47;5067711;28;20055;-83
2021/05/26 04:05:09;;;;;;;12.25;8.40;;;;;;;7.76;88.66;100429.59;5070753;28;20052;-83
2021/05/26 04:07:44;;;;;;;17.98;13.07;;;;;;;7.83;88.63;100432.19;5050106;28;20045;-83
2021/05/26 04:10:11;;;;;;;12.77;9.88;;;;;;;7.92;88.45;100433.03;5065585;28;20619;-83
2021/05/26 04:12:38;;;;;;;11.27;9.85;;;;;;;7.97;88.07;100429.59;5052081;28;20098;-83
2021/05/26 04:15:06;;;;;;;11.88;9.70;;;;;;;8.05;87.83;100430.44;5081071;28;20040;-83
2021/05/26 04:17:37;;;;;;;14.38;10.07;;;;;;;8.10;87.49;100426.94;5066493;28;20044;-83
2021/05/26 04:20:08;;;;;;;16.05;9.80;;;;;;;8.15;87.57;100437.34;5062571;28;20036;-84
2021/05/26 04:22:36;;;;;;;16.17;9.85;;;;;;;8.14;87.24;100426.94;5083745;28;20623;-83
2021/05/26 04:25:04;;;;;;;12.65;9.27;;;;;;;8.16;87.41;100426.06;5066432;28;20154;-83
2021/05/26 04:27:30;;;;;;;12.30;10.43;;;;;;;8.15;87.49;100420.81;5062469;28;20414;-83
2021/05/26 04:29:59;;;;;;;15.55;10.55;;;;;;;8.14;87.38;100424.34;5064393;28;20108;-83
2021/05/26 04:32:25;;;;;;;15.05;9.57;;;;;;;8.11;87.51;100423.44;5068158;28;20124;-84
2021/05/26 04:34:52;;;;;;;13.25;9.82;;;;;;;8.11;87.90;100422.59;5066615;28;20049;-83
2021/05/26 04:37:19;;;;;;;11.50;8.73;;;;;;;8.12;87.79;100419.09;5061277;28;20056;-84
2021/05/26 04:39:47;;;;;;;11.90;9.40;;;;;;;8.13;87.31;100414.75;5082015;28;20532;-83
2021/05/26 04:42:13;;;;;;;12.25;10.30;;;;;;;8.11;87.08;100413.03;5068749;28;20159;-83
2021/05/26 04:44:43;;;;;;;12.93;10.05;;;;;;;8.07;87.26;100413.91;5052353;28;20047;-83
2021/05/26 04:47:10;;;;;;;14.27;9.75;;;;;;;8.12;87.78;100408.66;5070619;28;20040;-84
2021/05/26 04:49:37;;;;;;;14.10;10.27;;;;;;;8.20;87.23;100409.53;5068122;28;20045;-83
2021/05/26 04:52:07;;;;;;;15.73;9.93;;;;;;;8.27;86.82;100413.84;5081522;28;20040;-83
2021/05/26 04:54:34;;;;;;;16.70;9.25;;;;;;;8.31;86.27;100406.03;5067878;28;20063;-84
2021/05/26 04:57:07;;;;;;;14.18;11.35;;;;;;;8.34;86.17;100413.81;5068930;28;20044;-83
2021/05/26 04:59:42;;;;;;;12.60;9.63;;;;;;;8.34;85.86;100409.47;5073314;28;20056;-82
2021/05/26 05:02:09;;;;;;;19.50;9.70;;;;;;;8.36;85.69;100409.47;5072035;28;20055;-86
2021/05/26 05:04:38;;;;;;;11.07;8.88;;;;;;;8.40;86.01;100399.00;5082117;28;20114;-83
2021/05/26 05:07:06;;;;;;;16.50;9.88;;;;;;;8.52;86.07;100405.94;5084216;28;20156;-83
2021/05/26 05:09:32;;;;;;;15.18;10.10;;;;;;;8.64;85.01;100406.78;5053886;28;20063;-83
2021/05/26 05:11:58;;;;;;;14.75;10.23;;;;;;;8.75;84.30;100398.00;5054770;28;20481;-83
2021/05/26 05:14:25;;;;;;;13.70;8.25;;;;;;;8.84;84.15;100398.81;5071515;28;20082;-84
2021/05/26 05:16:53;;;;;;;18.33;9.35;;;;;;;8.90;84.06;100407.50;5067231;28;20097;-83
2021/05/26 05:19:19;;;;;;;14.18;10.80;;;;;;;8.95;84.21;100397.03;5087012;28;20591;-84
2021/05/26 05:21:47;;;;;;;15.20;8.30;;;;;;;9.01;83.78;100403.94;5069586;28;20060;-82
2021/05/26 05:24:13;;;;;;;15.00;9.63;;;;;;;9.08;83.90;100403.03;5051895;28;20045;-84
2021/05/26 05:26:42;;;;;;;13.25;8.45;;;;;;;9.15;83.13;100388.19;5053055;28;20056;-83
2021/05/26 05:29:08;;;;;;;10.15;6.80;;;;;;;9.18;82.77;100394.25;5070497;28;20059;-83
2021/05/26 05:31:34;;;;;;;12.45;7.60;;;;;;;9.21;82.44;100389.00;5090149;28;20040;-83
2021/05/26 05:34:03;;;;;;;12.63;6.72;;;;;;;9.21;82.08;100394.22;5068203;28;20040;-82
2021/05/26 05:36:29;;;;;;;11.15;7.03;;;;;;;9.23;82.25;100384.66;5085913;28;20052;-83
2021/05/26 05:38:55;;;;;;;10.80;6.97;;;;;;;9.20;81.82;100392.50;5086433;28;20048;-83
2021/05/26 05:41:21;;;;;;;10.07;6.68;;;;;;;9.17;81.85;100386.44;5072863;28;20040;-83
2021/05/26 05:43:50;;;;;;;9.60;5.97;;;;;;;9.10;82.28;100388.25;5059617;28;20086;-83
2021/05/26 05:46:17;;;;;;;11.68;5.97;;;;;;;9.01;82.34;100388.28;5067400;28;20044;-84
2021/05/26 05:48:48;;;;;;;9.25;5.57;;;;;;;8.92;81.69;100384.00;5072609;28;20048;-84
2021/05/26 05:51:16;;;;;;;9.35;5.57;;;;;;;8.95;81.94;100383.97;5065810;28;20064;-83
2021/05/26 05:53:42;;;;;;;12.15;6.53;;;;;;;9.01;81.77;100378.72;5070356;28;20109;-83
2021/05/26 05:56:08;;;;;;;10.02;6.40;;;;;;;9.06;81.73;100376.06;5071260;28;20047;-84
2021/05/26 05:58:35;;;;;;;15.48;6.22;;;;;;;9.18;81.53;100380.34;5085135;28;20728;-84
2021/05/26 06:01:02;;;;;;;7.80;4.93;;;;;;;9.33;80.62;100380.19;5071674;28;20044;-84
2021/05/26 06:03:32;;;;;;;11.05;5.18;;;;;;;9.53;79.10;100384.38;5050326;28;20185;-84
2021/05/26 06:06:02;;;;;;;8.60;5.40;;;;;;;9.80;79.32;100378.03;5085338;28;20118;-84
2021/05/26 06:08:29;;;;;;;13.68;5.38;;;;;;;10.12;77.79;100371.59;5064526;28;20113;-83
2021/05/26 06:10:56;;;;;;;12.05;5.50;;;;;;;10.33;76.85;100369.63;5070326;28;20127;-83
2021/05/26 06:13:22;;;;;;;6.72;4.95;;;;;;;10.52;76.10;100375.50;5071988;28;20131;-83
2021/05/26 06:15:48;;;;;;;9.90;5.07;;;;;;;10.56;74.28;100372.81;5065929;28;20052;-83
2021/05/26 06:18:19;;;;;;;8.52;4.70;;;;;;;10.52;73.81;100373.75;5053740;28;20573;-83
2021/05/26 06:20:50;;;;;;;10.10;6.05;;;;;;;10.51;73.65;100376.41;5068698;28;20048;-83
2021/05/26 06:23:21;;;;;;;11.30;4.72;;;;;;;10.39;74.80;100373.03;5072327;28;20045;-84
2021/05/26 06:25:47;;;;;;;12.43;5.45;;;;;;;10.32;75.12;100373.09;5070540;28;20727;-86
2021/05/26 06:28:13;;;;;;;9.25;5.50;;;;;;;10.24;74.93;100367.97;5065668;28;20112;-83
2021/05/26 06:30:43;;;;;;;6.53;5.05;;;;;;;10.20;75.42;100367.13;5058853;28;20133;-82
2021/05/26 06:33:10;;;;;;;9.73;5.28;;;;;;;10.32;75.30;100366.09;5068044;28;20055;-82
2021/05/26 06:35:36;;;;;;;11.57;5.10;;;;;;;10.39;74.68;100372.16;5068651;28;20048;-82
2021/05/26 06:38:07;;;;;;;8.68;5.05;;;;;;;10.40;73.69;100369.56;5066616;28;20980;-83
2021/05/26 06:40:36;;;;;;;6.45;5.03;;;;;;;10.56;73.81;100358.88;5071609;28;20048;-83
2021/05/26 06:43:02;;;;;;;7.90;4.68;;;;;;;10.60;73.11;100355.34;5049772;28;20041;-83
2021/05/26 06:45:28;;;;;;;10.90;5.43;;;;;;;10.70;72.93;100363.91;5069521;28;20072;-83
2021/05/26 06:47:54;;;;;;;8.02;5.70;;;;;;;10.73;72.33;100364.72;5070084;28;20044;-84
2021/05/26 06:50:21;;;;;;;8.98;5.10;;;;;;;10.83;72.77;100357.59;5060252;28;20075;-83
2021/05/26 06:52:50;;;;;;;10.35;5.72;;;;;;;10.92;72.68;100357.47;5051058;28;20078;-83
2021/05/26 06:55:18;;;;;;;9.40;5.57;;;;;;;10.92;71.70;100365.34;5081639;28;20428;-82
2021/05/26 06:57:47;;;;;;;5.97;4.95;;;;;;;10.99;71.71;100360.00;5046089;28;20381;-83
2021/05/26 07:00:16;;;;;;;8.23;5.07;;;;;;;11.03;71.59;100361.66;5053342;28;20043;-83
2021/05/26 07:02:43;;;;;;;9.68;5.28;;;;;;;10.96;71.49;100363.50;5066654;28;20143;-82
2021/05/26 07:05:10;;;;;;;9.05;5.78;;;;;;;11.00;71.24;100356.47;5088476;28;20072;-83
2021/05/26 07:07:39;;;;;;;7.35;5.18;;;;;;;10.93;70.52;100346.09;5084547;28;20451;-83
2021/05/26 07:10:06;;;;;;;12.90;5.47;;;;;;;10.91;71.37;100354.88;5067064;28;20049;-83
2021/05/26 07:12:33;;;;;;;8.43;5.22;;;;;;;11.04;71.10;100358.16;5067737;28;20055;-82
2021/05/26 07:15:00;;;;;;;8.82;5.15;;;;;;;11.21;70.57;100357.88;5066290;28;20072;-82
2021/05/26 07:17:28;;;;;;;12.80;6.03;;;;;;;11.28;69.97;100351.69;5051691;28;20051;-85
2021/05/26 07:20:00;;;;;;;7.72;6.13;;;;;;;11.47;69.33;100351.34;5049767;28;20044;-83
2021/05/26 07:22:28;;;;;;;10.00;6.07;;;;;;;11.51;69.07;100356.53;5068312;28;20052;-83
2021/05/26 07:24:55;;;;;;;8.85;6.47;;;;;;;11.84;69.22;100350.69;5067635;28;20041;-83
2021/05/26 07:27:21;;;;;;;9.18;6.95;;;;;;;12.05;68.10;100344.19;5051678;28;20048;-83
2021/05/26 07:29:47;;;;;;;10.05;6.70;;;;;;;12.12;67.14;100351.03;5065056;28;21936;-84
2021/05/26 07:32:13;;;;;;;10.57;7.28;;;;;;;12.01;67.30;100356.50;5049019;28;20082;-84
2021/05/26 07:34:39;;;;;;;10.73;7.45;;;;;;;11.97;66.62;100336.47;5070230;28;20044;-83
2021/05/26 07:37:06;;;;;;;10.48;7.22;;;;;;;11.94;68.06;100352.22;5068213;28;20044;-83
2021/05/26 07:39:36;;;;;;;10.52;6.40;;;;;;;12.00;68.08;100348.66;5055188;28;20868;-84
2021/05/26 07:42:06;;;;;;;15.15;7.38;;;;;;;12.12;67.18;100348.41;5066989;28;20040;-83
2021/05/26 07:44:33;;;;;;;14.38;7.32;;;;;;;12.12;66.53;100350.19;5069825;28;20555;-83
2021/05/26 07:46:59;;;;;;;11.68;7.10;;;;;;;12.10;66.49;100344.09;5085414;28;20399;-88
2021/05/26 07:49:27;;;;;;;13.13;6.80;;;;;;;11.92;66.54;100346.16;5076846;28;20099;-87
2021/05/26 07:51:55;;;;;;;9.68;7.20;;;;;;;11.88;66.68;100342.72;5091700;28;20413;-84
2021/05/26 07:54:23;;;;;;;10.40;7.00;;;;;;;12.02;66.13;100344.22;5093985;28;20067;-79
2021/05/26 07:56:53;;;;;;;14.32;8.07;;;;;;;12.29;66.32;100347.19;5083949;28;20071;-81
2021/05/26 07:59:20;;;;;;;9.90;7.03;;;;;;;12.62;64.81;100332.50;5083009;28;20112;-82
2021/05/26 08:01:47;;;;;;;8.20;6.57;;;;;;;12.75;64.51;100335.69;5061221;28;20048;-83
2021/05/26 08:04:14;;;;;;;10.25;6.95;;;;;;;12.72;62.97;100326.13;5075127;28;20049;-80
2021/05/26 08:06:41;;;;;;;7.70;6.20;;;;;;;12.67;62.94;100335.00;5094825;28;20048;-83
2021/05/26 08:09:10;;;;;;;12.32;5.68;;;;;;;12.73;62.73;100329.59;5079487;28;20398;-82
2021/05/26 08:11:38;;;;;;;11.40;6.80;;;;;;;12.76;62.60;100329.53;5079064;28;20100;-80
2021/05/26 08:14:06;;;;;;;6.88;5.95;;;;;;;12.93;62.06;100334.38;5064339;28;20075;-80
2021/05/26 08:16:33;;;;;;;10.88;5.25;;;;;;;12.78;62.57;100335.63;5056505;28;20048;-85
2021/05/26 08:19:00;;;;;;;9.05;5.43;;;;;;;12.73;61.88;100332.22;5070446;28;20053;-80
2021/05/26 08:21:26;;;;;;;6.95;5.63;;;;;;;12.56;62.29;100340.50;5077605;28;20033;-81
2021/05/26 08:23:55;;;;;;;8.50;5.93;;;;;;;12.74;62.37;100336.59;5097691;28;20127;-79
2021/05/26 08:26:22;;;;;;;6.78;5.68;;;;;;;13.09;61.71;100327.00;5092097;28;20056;-81
2021/05/26 08:28:53;;;;;;;10.02;5.60;;;;;;;13.62;59.68;100331.81;5066386;28;20062;-83
2021/05/26 08:31:22;;;;;;;9.32;5.63;;;;;;;13.97;58.55;100323.88;5076768;28;20063;-84
2021/05/26 08:33:48;;;;;;;9.15;5.30;;;;;;;14.12;57.24;100322.53;5094549;28;20566;-82
2021/05/26 08:36:15;;;;;;;9.82;4.53;;;;;;;13.67;57.91;100329.91;5100757;28;20045;-83
2021/05/26 08:38:43;;;;;;;8.18;4.75;;;;;;;13.21;59.04;100315.31;5079688;28;20167;-85
2021/05/26 08:41:11;;;;;;;5.50;4.97;;;;;;;13.14;59.91;100319.88;5081070;28;20052;-84
2021/05/26 08:43:41;;;;;;;6.25;4.53;;;;;;;13.38;59.34;100315.78;5078310;28;20040;-81
2021/05/26 08:46:10;;;;;;;7.22;4.35;;;;;;;13.27;57.99;100319.56;5101229;28;20083;-83
2021/05/26 08:48:37;;;;;;;9.43;6.10;;;;;;;13.35;57.59;100312.31;5078651;28;20072;-79
2021/05/26 08:51:06;;;;;;;5.72;5.00;;;;;;;13.55;57.64;100311.84;5064367;28;20131;-78
2021/05/26 08:53:36;;;;;;;8.00;4.97;;;;;;;13.49;57.43;100312.00;5065562;28;20494;-79
2021/05/26 08:56:03;;;;;;;8.18;4.90;;;;;;;13.46;56.81;100296.31;5061909;28;20112;-83
2021/05/26 08:58:30;;;;;;;7.60;5.53;;;;;;;13.64;56.77;100308.97;5084208;28;20052;-78
2021/05/26 09:00:57;;;;;;;7.18;5.63;;;;;;;13.91;55.59;100303.84;5101554;28;20066;-80
2021/05/26 09:03:23;;;;;;;7.50;4.78;;;;;;;13.86;56.17;100308.38;5065536;28;20064;-79
2021/05/26 09:05:53;;;;;;;7.28;4.43;;;;;;;14.02;56.17;100301.75;5083423;28;20048;-82
2021/05/26 09:08:23;;;;;;;6.65;5.05;;;;;;;14.35;54.52;100292.91;5098422;28;20097;-79
2021/05/26 09:11:04;;;;;;;9.10;4.28;;;;;;;14.34;55.06;100299.06;5078913;28;20044;-83
2021/05/26 09:13:39;;;;;;;8.40;4.90;;;;;;;14.09;55.41;100304.22;5065222;28;20056;-83
2021/05/26 09:16:30;;;;;;;9.30;5.97;;;;;;;14.01;54.65;100291.28;5086942;28;20072;-81
2021/05/26 09:19:09;;;;;;;8.30;5.05;;;;;;;13.67;55.90;100295.72;5081100;28;20415;-83
2021/05/26 09:21:46;;;;;;;8.32;5.18;;;;;;;13.39;57.56;100299.09;5089992;28;20076;-84
2021/05/26 09:24:22;;;;;;;8.20;5.75;;;;;;;13.34;57.49;100287.81;5077427;28;20047;-80
2021/05/26 09:27:02;;;;;;;10.38;5.65;;;;;;;13.65;56.80;100278.25;5080855;28;20070;-79
2021/05/26 09:29:41;;;;;;;7.95;5.63;;;;;;;14.29;55.57;100282.56;5062099;28;20108;-87
2021/05/26 09:32:30;;;;;;;10.52;4.63;;;;;;;14.58;54.33;100279.03;5080771;28;20047;-84
2021/05/26 09:34:58;;;;;;;9.70;5.00;;;;;;;14.85;54.34;100281.75;5060485;28;20048;-84
2021/05/26 09:37:36;;;;;;;4.97;4.28;;;;;;;15.15;51.94;100276.38;5065603;28;20045;-82
2021/05/26 09:40:10;;;;;;;5.47;4.05;;;;;;;15.30;51.42;100282.88;5078075;28;20580;-83
2021/05/26 09:42:45;;;;;;;4.60;3.53;;;;;;;15.26;52.06;100273.34;5064558;28;20072;-83
2021/05/26 09:45:26;;;;;;;5.85;3.47;;;;;;;15.96;48.57;100271.75;5082719;28;20043;-84
2021/05/26 09:47:56;;;;;;;4.55;3.30;;;;;;;16.43;47.98;100268.22;5080986;28;20060;-82
2021/05/26 09:50:30;;;;;;;5.38;3.35;;;;;;;16.59;45.86;100266.66;5051332;28;20056;-84
2021/05/26 09:53:11;;;;;;;;;;;;;;;17.00;45.38;100264.16;5082387;28;20045;-80
2021/05/26 09:55:44;;;;;;;4.03;3.10;;;;;;;17.60;45.42;100263.34;5081251;28;19924;-80
2021/05/26 09:58:16;;;;;;;6.00;3.17;;;;;;;17.90;44.15;100269.97;5082875;28;21062;-83
2021/05/26 10:00:50;;;;;;;4.47;3.13;;;;;;;17.94;44.11;100251.25;5080443;28;20049;-82
2021/05/26 10:03:18;;;;;;;5.57;2.88;;;;;;;17.72;44.04;100259.28;5080710;28;20064;-84
2021/05/26 10:05:45;;;;;;;6.57;3.15;;;;;;;17.36;43.01;100250.28;5096485;28;20047;-82
2021/05/26 10:08:14;;;;;;;3.17;2.75;;;;;;;17.13;44.20;100251.25;5079924;28;20044;-81
2021/05/26 10:10:48;;;;;;;4.82;2.20;;;;;;;16.91;44.22;100253.97;5078826;28;20075;-79
2021/05/26 10:13:15;;;;;;;3.47;2.55;;;;;;;16.82;43.98;100244.59;5080712;28;20447;-81
2021/05/26 10:15:42;;;;;;;3.80;2.42;;;;;;;17.22;43.63;100241.22;5065657;28;20050;-85
2021/05/26 10:18:11;;;;;;;3.78;1.92;;;;;;;16.91;43.00;100242.50;5084747;28;20040;-83
2021/05/26 10:20:40;;;;;;;3.53;1.58;;;;;;;16.82;43.42;100246.38;5102210;28;20131;-81
2021/05/26 10:23:07;;;;;;;2.42;1.50;;;;;;;16.21;44.49;100240.00;5084377;28;20052;-80
2021/05/26 10:25:43;;;;;;;4.60;1.80;;;;;;;16.02;45.29;100240.72;5083636;28;20024;-81
2021/05/26 10:28:32;;;;;;;1.77;1.42;;;;;;;17.03;43.76;100242.84;5079284;28;20063;-84
2021/05/26 10:31:06;;;;;;;4.45;1.52;;;;;;;19.19;39.40;100231.13;5064794;28;20044;-82
2021/05/26 10:33:59;;;;;;;3.17;2.33;;;;;;;20.72;35.50;100232.59;5082797;28;20082;-84
2021/05/26 10:36:27;;;;;;;1.98;1.75;;;;;;;19.76;35.83;100225.41;5051368;28;20044;-80
2021/05/26 10:39:01;;;;;;;3.50;1.83;;;;;;;18.43;39.33;100232.16;5094580;28;20064;-80
2021/05/26 10:41:51;;;;;;;3.10;1.55;;;;;;;18.37;39.08;100236.91;5067455;28;20067;-82
2021/05/26 10:44:18;;;;;;;3.22;1.58;;;;;;;17.79;41.22;100231.59;5064214;28;20052;-79
2021/05/26 10:46:48;;;;;;;2.78;1.65;;;;;;;18.82;39.19;100220.53;5062860;28;20071;-81
2021/05/26 10:49:21;;;;;;;1.77;1.20;;;;;;;19.00;37.75;100239.16;5071550;28;20044;-80
2021/05/26 10:51:57;;;;;;;4.35;1.90;;;;;;;19.11;38.11;100231.50;5095165;28;20037;-80
2021/05/26 10:54:41;;;;;;;1.83;1.48;;;;;;;19.12;36.98;100235.84;5082923;28;20052;-83
2021/05/26 10:57:12;;;;;;;1.88;1.30;;;;;;;18.37;38.49;100227.19;5078686;28;20705;-80
2021/05/26 10:59:39;;;;;;;3.38;1.50;;;;;;;18.36;39.69;100236.06;5083602;28;20040;-84
2021/05/26 11:02:07;;;;;;;3.75;1.83;;;;;;;18.61;39.00;100235.72;5083354;28;20059;-83
2021/05/26 11:04:37;;;;;;;1.85;1.35;;;;;;;18.49;38.21;100238.97;5079453;28;20048;-84
2021/05/26 11:07:29;;;;;;;3.47;1.67;;;;;;;18.68;37.81;100237.16;5076472;28;20037;-81
2021/05/26 11:10:06;;;;;;;1.60;1.45;;;;;;;20.00;35.34;100228.59;5083810;28;20045;-82
2021/05/26 11:12:57;;;;;;;2.42;1.15;;;;;;;21.11;33.46;100215.22;5083578;28;20456;-82
2021/05/26 11:15:43;;;;;;;1.67;1.13;;;;;;;20.36;34.30;100209.81;5095834;28;20051;-80
2021/05/26 11:18:12;;;;;;;1.90;0.77;;;;;;;19.50;36.09;100222.41;5062260;28;20044;-81
2021/05/26 11:20:40;;;;;;;0.98;0.90;;;;;;;18.22;38.52;100233.22;5058882;28;20049;-79
2021/05/26 11:23:29;;;;;;;3.85;1.90;;;;;;;17.48;39.94;100226.84;5103995;28;20048;-81
2021/05/26 11:26:07;;;;;;;5.88;1.15;;;;;;;18.08;38.89;100233.84;5092399;28;20044;-86
2021/05/26 11:28:39;;;;;;;4.72;1.00;;;;;;;20.27;35.48;100213.84;5075821;28;20140;-82
2021/05/26 11:31:23;;;;;;;0.90;0.90;;;;;;;19.67;34.90;100213.53;5067947;28;20531;-79
2021/05/26 11:34:07;;;;;;;2.20;1.05;;;;;;;19.03;35.12;100216.91;5084677;28;20352;-81
2021/05/26 11:36:50;;;;;;;1.50;1.10;;;;;;;18.77;35.81;100216.41;5095869;28;20086;-81
2021/05/26 11:39:26;;;;;;;1.83;0.88;;;;;;;18.48;36.89;100211.59;5075302;28;20449;-80
2021/05/26 11:42:18;;;;;;;3.25;0.70;;;;;;;18.06;37.75;100218.03;5058027;28;20063;-82